sensor_id;sensor_type;location;lat;lon;timestamp;pressure;altitude;pressure_sealevel;temperature;humidity
39265;BME280;42646;51.910;7.724;2023-02-01T01:33:01;101150.78;;;4.94;100.00
39265;BME280;42646;51.910;7.724;2023-02-01T01:35:29;101138.00;;;5.02;100.00
39265;BME280;42646;51.910;7.724;2023-02-01T01:38:05;101137.03;;;5.03;100.00
39265;BME280;42646;51.910;7.724;2023-02-01T01:40:33;101143.84;;;5.07;100.00
39265;BME280;42646;51.910;7.724;2023-02-01T01:43:16;101144.94;;;5.03;100.00
39265;BME280;42646;51.910;7.724;2023-02-01T01:45:46;101141.47;;;5.02;100.00
39265;BME280;42646;51.910;7.724;2023-02-01T01:48:18;101134.25;;;5.06;100.00
39265;BME280;42646;51.910;7.724;2023-02-01T01:50:50;101127.84;;;5.10;100.00
39265;BME280;42646;51.910;7.724;2023-02-01T01:53:22;101112.88;;;5.11;100.00
39265;BME280;42646;51.910;7.724;2023-02-01T01:55:54;101115.69;;;5.07;100.00
39265;BME280;42646;51.910;7.724;2023-02-01T01:58:26;101114.66;;;5.10;100.00
39265;BME280;42646;51.910;7.724;2023-02-01T02:00:55;101105.97;;;5.08;100.00
39265;BME280;42646;51.910;7.724;2023-02-01T02:03:33;101112.03;;;5.10;100.00
39265;BME280;42646;51.910;7.724;2023-02-01T02:06:03;101103.91;;;5.13;100.00
39265;BME280;42646;51.910;7.724;2023-02-01T02:08:43;101102.50;;;5.07;100.00
39265;BME280;42646;51.910;7.724;2023-02-01T02:11:15;101088.66;;;5.18;98.98
39265;BME280;42646;51.910;7.724;2023-02-01T02:13:51;101092.16;;;5.19;98.58
39265;BME280;42646;51.910;7.724;2023-02-01T02:16:51;101084.59;;;5.27;97.00
39265;BME280;42646;51.910;7.724;2023-02-01T02:22:48;101084.91;;;5.36;96.22
39265;BME280;42646;51.910;7.724;2023-02-01T02:25:36;101081.13;;;5.26;96.43
39265;BME280;42646;51.910;7.724;2023-02-01T02:28:47;101067.88;;;5.28;96.05
39265;BME280;42646;51.910;7.724;2023-02-01T02:31:39;101059.94;;;5.42;95.50
39265;BME280;42646;51.910;7.724;2023-02-01T02:34:17;101058.81;;;5.32;95.57
39265;BME280;42646;51.910;7.724;2023-02-01T02:36:56;101059.94;;;5.28;95.95
39265;BME280;42646;51.910;7.724;2023-02-01T02:39:37;101043.19;;;5.29;95.72
39265;BME280;42646;51.910;7.724;2023-02-01T02:42:12;101054.00;;;5.24;96.13
39265;BME280;42646;51.910;7.724;2023-02-01T02:45:04;101039.22;;;5.22;96.14
39265;BME280;42646;51.910;7.724;2023-02-01T02:48:00;101037.50;;;5.21;96.60
39265;BME280;42646;51.910;7.724;2023-02-01T02:50:38;101038.53;;;5.32;95.53
39265;BME280;42646;51.910;7.724;2023-02-01T02:53:38;101026.31;;;5.31;95.32
39265;BME280;42646;51.910;7.724;2023-02-01T02:56:26;101036.94;;;5.30;95.79
39265;BME280;42646;51.910;7.724;2023-02-01T02:59:16;101036.09;;;5.29;95.64
39265;BME280;42646;51.910;7.724;2023-02-01T03:02:03;101031.47;;;5.33;95.51
39265;BME280;42646;51.910;7.724;2023-02-01T03:04:52;101034.97;;;5.33;95.40
39265;BME280;42646;51.910;7.724;2023-02-01T03:08:00;101030.06;;;5.42;95.41
39265;BME280;42646;51.910;7.724;2023-02-01T03:10:45;101021.31;;;5.27;96.12
39265;BME280;42646;51.910;7.724;2023-02-01T03:13:22;101024.97;;;5.39;95.41
39265;BME280;42646;51.910;7.724;2023-02-01T03:15:59;101028.94;;;5.31;95.92
39265;BME280;42646;51.910;7.724;2023-02-01T03:18:33;101019.63;;;5.40;95.44
39265;BME280;42646;51.910;7.724;2023-02-01T03:21:31;101024.59;;;5.45;94.98
39265;BME280;42646;51.910;7.724;2023-02-01T03:24:07;101010.75;;;5.41;95.28
39265;BME280;42646;51.910;7.724;2023-02-01T03:26:43;101012.63;;;5.39;95.47
39265;BME280;42646;51.910;7.724;2023-02-01T03:29:25;101002.56;;;5.31;95.60
39265;BME280;42646;51.910;7.724;2023-02-01T03:32:02;100994.91;;;5.41;95.28
39265;BME280;42646;51.910;7.724;2023-02-01T03:34:31;100998.59;;;5.39;95.23
39265;BME280;42646;51.910;7.724;2023-02-01T03:37:26;100984.31;;;5.55;94.23
39265;BME280;42646;51.910;7.724;2023-02-01T03:40:00;100985.16;;;5.56;93.50
39265;BME280;42646;51.910;7.724;2023-02-01T03:42:35;100984.94;;;5.46;94.02
39265;BME280;42646;51.910;7.724;2023-02-01T03:45:14;100988.97;;;5.52;94.42
39265;BME280;42646;51.910;7.724;2023-02-01T03:47:51;100985.47;;;5.51;93.71
39265;BME280;42646;51.910;7.724;2023-02-01T03:50:24;100991.91;;;5.47;93.96
39265;BME280;42646;51.910;7.724;2023-02-01T03:52:57;100994.44;;;5.49;93.93
39265;BME280;42646;51.910;7.724;2023-02-01T03:55:36;100999.53;;;5.52;94.21
39265;BME280;42646;51.910;7.724;2023-02-01T03:58:11;100989.41;;;5.58;93.88
39265;BME280;42646;51.910;7.724;2023-02-01T04:00:44;100990.72;;;5.51;94.14
39265;BME280;42646;51.910;7.724;2023-02-01T04:03:13;100986.84;;;5.57;94.88
39265;BME280;42646;51.910;7.724;2023-02-01T04:05:47;100993.66;;;5.61;93.51
39265;BME280;42646;51.910;7.724;2023-02-01T04:08:43;100989.38;;;5.46;94.32
39265;BME280;42646;51.910;7.724;2023-02-01T04:11:17;100987.34;;;5.49;94.40
39265;BME280;42646;51.910;7.724;2023-02-01T04:13:47;100991.50;;;5.53;94.42
39265;BME280;42646;51.910;7.724;2023-02-01T04:16:16;100983.31;;;5.58;93.49
39265;BME280;42646;51.910;7.724;2023-02-01T04:18:44;100979.59;;;5.60;93.71
39265;BME280;42646;51.910;7.724;2023-02-01T04:21:12;100980.75;;;5.56;93.76
39265;BME280;42646;51.910;7.724;2023-02-01T04:23:41;100966.69;;;5.56;94.06
39265;BME280;42646;51.910;7.724;2023-02-01T04:26:09;100977.25;;;5.56;93.90
39265;BME280;42646;51.910;7.724;2023-02-01T04:29:03;100977.63;;;5.64;93.48
39265;BME280;42646;51.910;7.724;2023-02-01T04:31:34;100969.44;;;5.54;94.22
39265;BME280;42646;51.910;7.724;2023-02-01T04:34:05;100966.50;;;5.59;94.44
39265;BME280;42646;51.910;7.724;2023-02-01T04:36:33;100962.63;;;5.65;94.15
39265;BME280;42646;51.910;7.724;2023-02-01T04:39:30;100963.38;;;5.67;93.89
39265;BME280;42646;51.910;7.724;2023-02-01T04:42:08;100944.44;;;5.60;94.60
39265;BME280;42646;51.910;7.724;2023-02-01T04:44:41;100956.25;;;5.54;94.73
39265;BME280;42646;51.910;7.724;2023-02-01T04:47:23;100969.56;;;5.53;95.28
39265;BME280;42646;51.910;7.724;2023-02-01T04:49:58;100957.75;;;5.58;95.07
39265;BME280;42646;51.910;7.724;2023-02-01T04:52:25;100952.16;;;5.63;94.58
39265;BME280;42646;51.910;7.724;2023-02-01T04:54:55;100961.41;;;5.56;94.99
39265;BME280;42646;51.910;7.724;2023-02-01T04:57:30;100966.81;;;5.54;95.06
39265;BME280;42646;51.910;7.724;2023-02-01T05:00:28;100969.56;;;5.53;95.28
39265;BME280;42646;51.910;7.724;2023-02-01T05:02:59;100965.47;;;5.61;95.12
39265;BME280;42646;51.910;7.724;2023-02-01T05:05:34;100961.53;;;5.54;95.67
39265;BME280;42646;51.910;7.724;2023-02-01T05:08:03;100959.63;;;5.56;95.47
39265;BME280;42646;51.910;7.724;2023-02-01T05:10:34;100974.03;;;5.65;94.76
39265;BME280;42646;51.910;7.724;2023-02-01T05:13:02;100972.09;;;5.54;94.89
39265;BME280;42646;51.910;7.724;2023-02-01T05:15:52;100962.41;;;5.68;94.77
39265;BME280;42646;51.910;7.724;2023-02-01T05:18:20;100944.13;;;5.52;95.14
39265;BME280;42646;51.910;7.724;2023-02-01T05:20:48;100950.56;;;5.60;95.05
39265;BME280;42646;51.910;7.724;2023-02-01T05:23:15;100944.44;;;5.60;95.19
39265;BME280;42646;51.910;7.724;2023-02-01T05:25:48;100950.88;;;5.56;94.87
39265;BME280;42646;51.910;7.724;2023-02-01T05:28:16;100946.44;;;5.56;95.27
39265;BME280;42646;51.910;7.724;2023-02-01T05:31:13;100940.41;;;5.54;95.21
39265;BME280;42646;51.910;7.724;2023-02-01T05:34:07;100943.59;;;5.59;94.35
39265;BME280;42646;51.910;7.724;2023-02-01T05:36:35;100935.97;;;5.55;94.72
39265;BME280;42646;51.910;7.724;2023-02-01T05:39:11;100928.91;;;5.55;95.33
39265;BME280;42646;51.910;7.724;2023-02-01T05:41:39;100932.50;;;5.54;95.32
39265;BME280;42646;51.910;7.724;2023-02-01T05:44:07;100923.91;;;5.51;95.67
39265;BME280;42646;51.910;7.724;2023-02-01T05:46:37;100928.81;;;5.57;95.63
39265;BME280;42646;51.910;7.724;2023-02-01T05:49:06;100919.50;;;5.51;96.25
39265;BME280;42646;51.910;7.724;2023-02-01T05:51:34;100927.22;;;5.54;95.77
39265;BME280;42646;51.910;7.724;2023-02-01T05:54:08;100928.22;;;5.66;95.14
39265;BME280;42646;51.910;7.724;2023-02-01T05:56:36;100922.78;;;5.55;95.70
39265;BME280;42646;51.910;7.724;2023-02-01T05:59:03;100910.72;;;5.51;96.25
39265;BME280;42646;51.910;7.724;2023-02-01T06:01:32;100926.28;;;5.55;96.94
39265;BME280;42646;51.910;7.724;2023-02-01T06:04:09;100931.81;;;5.65;95.42
39265;BME280;42646;51.910;7.724;2023-02-01T06:06:37;100919.50;;;5.51;96.58
39265;BME280;42646;51.910;7.724;2023-02-01T06:09:05;100923.84;;;5.52;96.55
39265;BME280;42646;51.910;7.724;2023-02-01T06:11:40;100931.03;;;5.63;95.38
39265;BME280;42646;51.910;7.724;2023-02-01T06:14:26;100936.81;;;5.55;95.83
39265;BME280;42646;51.910;7.724;2023-02-01T06:16:55;100926.38;;;5.54;96.10
39265;BME280;42646;51.910;7.724;2023-02-01T06:19:28;100943.59;;;5.59;96.27
39265;BME280;42646;51.910;7.724;2023-02-01T06:22:02;100945.69;;;5.54;95.78
39265;BME280;42646;51.910;7.724;2023-02-01T06:24:38;100941.38;;;5.53;96.27
39265;BME280;42646;51.910;7.724;2023-02-01T06:27:06;100942.59;;;5.48;96.80
39265;BME280;42646;51.910;7.724;2023-02-01T06:30:05;100943.63;;;5.45;97.27
39265;BME280;42646;51.910;7.724;2023-02-01T06:32:34;100945.25;;;5.48;97.29
39265;BME280;42646;51.910;7.724;2023-02-01T06:35:03;100964.91;;;5.56;96.76
39265;BME280;42646;51.910;7.724;2023-02-01T06:37:45;100953.72;;;5.53;96.28
39265;BME280;42646;51.910;7.724;2023-02-01T06:40:14;100953.63;;;5.54;96.42
39265;BME280;42646;51.910;7.724;2023-02-01T06:42:45;100966.13;;;5.51;96.47
39265;BME280;42646;51.910;7.724;2023-02-01T06:45:20;100960.88;;;5.51;96.54
39265;BME280;42646;51.910;7.724;2023-02-01T06:47:52;100959.56;;;5.58;96.42
39265;BME280;42646;51.910;7.724;2023-02-01T06:50:46;100970.78;;;5.47;97.29
39265;BME280;42646;51.910;7.724;2023-02-01T06:53:16;100969.72;;;5.50;97.03
39265;BME280;42646;51.910;7.724;2023-02-01T06:55:53;100970.09;;;5.58;96.75
39265;BME280;42646;51.910;7.724;2023-02-01T06:58:24;100974.72;;;5.54;96.79
39265;BME280;42646;51.910;7.724;2023-02-01T07:00:57;100990.84;;;5.50;97.45
39265;BME280;42646;51.910;7.724;2023-02-01T07:03:28;100968.72;;;5.52;97.06
39265;BME280;42646;51.910;7.724;2023-02-01T07:06:00;100978.41;;;5.52;97.35
39265;BME280;42646;51.910;7.724;2023-02-01T07:08:54;100981.06;;;5.52;96.92
39265;BME280;42646;51.910;7.724;2023-02-01T07:11:34;100991.41;;;5.55;96.93
39265;BME280;42646;51.910;7.724;2023-02-01T07:14:03;100991.50;;;5.53;97.08
39265;BME280;42646;51.910;7.724;2023-02-01T07:16:40;101000.44;;;5.51;97.17
39265;BME280;42646;51.910;7.724;2023-02-01T07:19:13;100987.63;;;5.59;96.66
39265;BME280;42646;51.910;7.724;2023-02-01T07:21:42;100984.44;;;5.54;97.27
39265;BME280;42646;51.910;7.724;2023-02-01T07:24:17;100993.00;;;5.57;96.95
39265;BME280;42646;51.910;7.724;2023-02-01T07:26:51;101002.13;;;5.66;96.57
39265;BME280;42646;51.910;7.724;2023-02-01T07:29:51;101005.16;;;5.60;96.90
39265;BME280;42646;51.910;7.724;2023-02-01T07:32:21;101003.66;;;5.56;97.28
39265;BME280;42646;51.910;7.724;2023-02-01T07:34:50;101007.69;;;5.61;97.41
39265;BME280;42646;51.910;7.724;2023-02-01T07:37:19;101012.97;;;5.61;97.49
39265;BME280;42646;51.910;7.724;2023-02-01T07:39:48;101020.69;;;5.65;96.82
39265;BME280;42646;51.910;7.724;2023-02-01T07:42:17;101012.72;;;5.79;96.06
39265;BME280;42646;51.910;7.724;2023-02-01T07:44:48;101015.88;;;5.71;96.38
39265;BME280;42646;51.910;7.724;2023-02-01T07:47:19;101022.28;;;5.67;96.82
39265;BME280;42646;51.910;7.724;2023-02-01T07:49:47;101012.94;;;5.76;97.08
39265;BME280;42646;51.910;7.724;2023-02-01T07:52:15;101018.41;;;5.73;97.22
39265;BME280;42646;51.910;7.724;2023-02-01T07:54:47;101020.66;;;5.79;97.43
39265;BME280;42646;51.910;7.724;2023-02-01T07:57:15;101012.94;;;5.76;97.05
39265;BME280;42646;51.910;7.724;2023-02-01T07:59:43;101031.22;;;5.79;97.03
39265;BME280;42646;51.910;7.724;2023-02-01T08:02:38;101016.88;;;5.83;96.95
39265;BME280;42646;51.910;7.724;2023-02-01T08:05:07;101017.50;;;5.86;97.38
39265;BME280;42646;51.910;7.724;2023-02-01T08:07:35;101019.88;;;5.91;97.00
39265;BME280;42646;51.910;7.724;2023-02-01T08:10:07;101019.22;;;5.87;97.30
39265;BME280;42646;51.910;7.724;2023-02-01T08:12:37;101034.50;;;5.97;96.59
39265;BME280;42646;51.910;7.724;2023-02-01T08:15:06;101017.31;;;5.89;96.79
39265;BME280;42646;51.910;7.724;2023-02-01T08:17:33;101021.88;;;5.87;97.34
39265;BME280;42646;51.910;7.724;2023-02-01T08:20:06;101024.03;;;5.95;97.20
39265;BME280;42646;51.910;7.724;2023-02-01T08:22:34;101013.72;;;6.05;96.03
39265;BME280;42646;51.910;7.724;2023-02-01T08:25:02;101030.44;;;6.05;95.97
39265;BME280;42646;51.910;7.724;2023-02-01T08:27:38;101035.50;;;6.08;94.67
39265;BME280;42646;51.910;7.724;2023-02-01T08:30:20;101037.19;;;6.09;95.14
39265;BME280;42646;51.910;7.724;2023-02-01T08:32:51;101045.03;;;6.11;94.98
39265;BME280;42646;51.910;7.724;2023-02-01T08:35:19;101041.06;;;6.04;95.78
39265;BME280;42646;51.910;7.724;2023-02-01T08:38:04;101042.97;;;6.02;95.86
39265;BME280;42646;51.910;7.724;2023-02-01T08:40:35;101036.22;;;6.10;95.29
39265;BME280;42646;51.910;7.724;2023-02-01T08:43:08;101042.69;;;6.06;95.56
39265;BME280;42646;51.910;7.724;2023-02-01T08:46:09;101037.53;;;6.18;94.60
39265;BME280;42646;51.910;7.724;2023-02-01T08:48:41;101033.19;;;6.16;94.36
39265;BME280;42646;51.910;7.724;2023-02-01T08:51:10;101038.38;;;6.18;94.58
39265;BME280;42646;51.910;7.724;2023-02-01T08:53:42;101030.16;;;6.23;94.04
39265;BME280;42646;51.910;7.724;2023-02-01T08:56:12;101033.97;;;6.31;93.70
39265;BME280;42646;51.910;7.724;2023-02-01T08:58:42;101037.44;;;6.19;94.15
39265;BME280;42646;51.910;7.724;2023-02-01T09:01:35;101036.72;;;6.30;93.93
39265;BME280;42646;51.910;7.724;2023-02-01T09:04:09;101035.97;;;6.28;94.08
39265;BME280;42646;51.910;7.724;2023-02-01T09:06:40;101031.75;;;6.25;94.16
39265;BME280;42646;51.910;7.724;2023-02-01T09:09:11;101030.50;;;6.31;93.69
39265;BME280;42646;51.910;7.724;2023-02-01T09:11:46;101026.91;;;6.32;93.88
39265;BME280;42646;51.910;7.724;2023-02-01T09:14:20;101022.47;;;6.32;94.00
39265;BME280;42646;51.910;7.724;2023-02-01T09:16:48;101018.38;;;6.41;93.11
39265;BME280;42646;51.910;7.724;2023-02-01T09:19:15;101023.97;;;6.36;93.07
39265;BME280;42646;51.910;7.724;2023-02-01T09:21:52;101028.09;;;6.40;92.61
39265;BME280;42646;51.910;7.724;2023-02-01T09:24:48;101027.44;;;6.37;93.24
39265;BME280;42646;51.910;7.724;2023-02-01T09:27:17;101019.00;;;6.45;92.77
39265;BME280;42646;51.910;7.724;2023-02-01T09:30:16;101013.00;;;6.55;91.47
39265;BME280;42646;51.910;7.724;2023-02-01T09:32:49;101008.31;;;6.46;92.38
39265;BME280;42646;51.910;7.724;2023-02-01T09:35:16;101006.56;;;6.59;91.55
39265;BME280;42646;51.910;7.724;2023-02-01T09:37:44;101003.78;;;6.48;92.21
39265;BME280;42646;51.910;7.724;2023-02-01T09:40:16;100994.19;;;6.47;92.67
39265;BME280;42646;51.910;7.724;2023-02-01T09:42:59;100993.94;;;6.50;92.30
39265;BME280;42646;51.910;7.724;2023-02-01T09:45:40;100996.41;;;6.53;92.53
39265;BME280;42646;51.910;7.724;2023-02-01T09:48:15;101000.72;;;6.54;92.39
39265;BME280;42646;51.910;7.724;2023-02-01T09:50:48;100991.22;;;6.64;92.40
39265;BME280;42646;51.910;7.724;2023-02-01T09:53:21;100992.28;;;6.62;92.09
39265;BME280;42646;51.910;7.724;2023-02-01T09:55:55;100986.97;;;6.62;92.02
39265;BME280;42646;51.910;7.724;2023-02-01T09:58:27;100991.44;;;6.61;92.64
39265;BME280;42646;51.910;7.724;2023-02-01T10:01:02;100983.59;;;6.73;92.48
39265;BME280;42646;51.910;7.724;2023-02-01T10:03:33;100992.63;;;6.83;91.60
39265;BME280;42646;51.910;7.724;2023-02-01T10:06:19;100970.50;;;6.84;91.31
39265;BME280;42646;51.910;7.724;2023-02-01T10:09:08;100985.41;;;6.85;91.15
39265;BME280;42646;51.910;7.724;2023-02-01T10:11:50;100993.56;;;6.94;90.46
39265;BME280;42646;51.910;7.724;2023-02-01T10:14:43;100989.75;;;6.86;91.56
39265;BME280;42646;51.910;7.724;2023-02-01T10:17:31;100990.81;;;6.96;90.96
39265;BME280;42646;51.910;7.724;2023-02-01T10:20:14;100985.72;;;7.06;89.67
39265;BME280;42646;51.910;7.724;2023-02-01T10:22:48;100989.28;;;7.05;89.29
39265;BME280;42646;51.910;7.724;2023-02-01T10:25:43;100986.66;;;7.05;89.52
39265;BME280;42646;51.910;7.724;2023-02-01T10:28:16;100984.41;;;7.11;89.10
39265;BME280;42646;51.910;7.724;2023-02-01T10:30:46;100982.13;;;7.07;90.02
39265;BME280;42646;51.910;7.724;2023-02-01T10:33:21;100989.72;;;7.11;89.50
39265;BME280;42646;51.910;7.724;2023-02-01T10:35:56;100989.50;;;7.14;89.57
39265;BME280;42646;51.910;7.724;2023-02-01T10:38:27;100996.38;;;7.17;89.55
39265;BME280;42646;51.910;7.724;2023-02-01T10:41:00;100992.16;;;7.14;89.54
39265;BME280;42646;51.910;7.724;2023-02-01T10:43:30;100990.66;;;7.23;89.63
39265;BME280;42646;51.910;7.724;2023-02-01T10:46:04;100981.94;;;7.34;87.60
39265;BME280;42646;51.910;7.724;2023-02-01T10:48:33;100986.22;;;7.23;88.25
39265;BME280;42646;51.910;7.724;2023-02-01T10:51:06;100976.38;;;7.26;88.50
39265;BME280;42646;51.910;7.724;2023-02-01T10:53:42;100975.19;;;7.30;88.54
39265;BME280;42646;51.910;7.724;2023-02-01T10:56:13;100979.75;;;7.28;88.52
39265;BME280;42646;51.910;7.724;2023-02-01T10:58:46;100972.03;;;7.25;87.06
39265;BME280;42646;51.910;7.724;2023-02-01T11:01:17;100959.41;;;7.28;87.20
39265;BME280;42646;51.910;7.724;2023-02-01T11:03:52;100931.53;;;7.48;86.50
39265;BME280;42646;51.910;7.724;2023-02-01T11:06:33;100943.72;;;7.38;86.24
39265;BME280;42646;51.910;7.724;2023-02-01T11:09:26;100936.00;;;7.35;87.27
39265;BME280;42646;51.910;7.724;2023-02-01T11:11:57;100945.66;;;7.36;86.31
39265;BME280;42646;51.910;7.724;2023-02-01T11:14:35;100941.53;;;7.32;87.04
39265;BME280;42646;51.910;7.724;2023-02-01T11:17:24;100945.78;;;7.21;88.44
39265;BME280;42646;51.910;7.724;2023-02-01T11:20:05;100951.38;;;7.30;88.41
39265;BME280;42646;51.910;7.724;2023-02-01T11:22:36;100936.97;;;7.34;87.15
39265;BME280;42646;51.910;7.724;2023-02-01T11:25:09;100947.97;;;7.28;87.95
39265;BME280;42646;51.910;7.724;2023-02-01T11:27:42;100940.69;;;7.31;87.31
39265;BME280;42646;51.910;7.724;2023-02-01T11:30:29;100930.09;;;7.31;88.85
39265;BME280;42646;51.910;7.724;2023-02-01T11:33:01;100924.00;;;7.18;90.21
39265;BME280;42646;51.910;7.724;2023-02-01T11:35:42;100929.63;;;7.13;91.70
39265;BME280;42646;51.910;7.724;2023-02-01T11:38:19;100919.16;;;7.12;92.10
39265;BME280;42646;51.910;7.724;2023-02-01T11:41:11;100916.72;;;7.09;92.77
39265;BME280;42646;51.910;7.724;2023-02-01T11:43:52;100898.00;;;6.99;93.99
39265;BME280;42646;51.910;7.724;2023-02-01T11:46:24;100903.63;;;6.94;94.91
39265;BME280;42646;51.910;7.724;2023-02-01T11:48:57;100913.06;;;6.86;95.91
39265;BME280;42646;51.910;7.724;2023-02-01T11:51:53;100905.34;;;6.83;96.73
39265;BME280;42646;51.910;7.724;2023-02-01T11:54:33;100888.19;;;6.76;97.77
39265;BME280;42646;51.910;7.724;2023-02-01T11:57:20;100887.28;;;6.77;97.84
39265;BME280;42646;51.910;7.724;2023-02-01T12:00:03;100880.09;;;6.53;100.00
39265;BME280;42646;51.910;7.724;2023-02-01T12:03:01;100886.34;;;6.65;100.00
39265;BME280;42646;51.910;7.724;2023-02-01T12:05:38;100897.75;;;6.53;100.00
39265;BME280;42646;51.910;7.724;2023-02-01T12:08:32;100897.66;;;6.54;100.00
39265;BME280;42646;51.910;7.724;2023-02-01T12:11:23;100883.38;;;6.57;100.00
39265;BME280;42646;51.910;7.724;2023-02-01T12:14:02;100883.69;;;6.39;100.00
39265;BME280;42646;51.910;7.724;2023-02-01T12:16:39;100885.47;;;6.39;100.00
39265;BME280;42646;51.910;7.724;2023-02-01T12:19:25;100888.13;;;6.39;100.00
39265;BME280;42646;51.910;7.724;2023-02-01T12:22:18;100884.31;;;6.43;100.00
39265;BME280;42646;51.910;7.724;2023-02-01T12:28:10;100875.88;;;6.25;100.00
39265;BME280;42646;51.910;7.724;2023-02-01T12:31:01;100897.19;;;6.22;100.00
39265;BME280;42646;51.910;7.724;2023-02-01T12:33:54;100896.88;;;6.14;100.00
39265;BME280;42646;51.910;7.724;2023-02-01T12:36:31;100888.34;;;6.23;100.00
39265;BME280;42646;51.910;7.724;2023-02-01T12:39:09;100880.72;;;6.19;100.00
39265;BME280;42646;51.910;7.724;2023-02-01T12:41:48;100879.66;;;6.08;100.00
39265;BME280;42646;51.910;7.724;2023-02-01T12:44:27;100868.06;;;6.11;100.00
39265;BME280;42646;51.910;7.724;2023-02-01T12:47:01;100847.84;;;6.10;100.00
39265;BME280;42646;51.910;7.724;2023-02-01T12:49:50;100855.59;;;6.13;100.00
39265;BME280;42646;51.910;7.724;2023-02-01T12:52:27;100848.91;;;6.20;100.00
39265;BME280;42646;51.910;7.724;2023-02-01T12:55:05;100853.97;;;6.10;100.00
39265;BME280;42646;51.910;7.724;2023-02-01T12:57:37;100842.16;;;6.16;100.00
39265;BME280;42646;51.910;7.724;2023-02-01T13:00:18;100843.94;;;6.15;100.00
39265;BME280;42646;51.910;7.724;2023-02-01T13:03:22;100849.34;;;6.14;100.00
39265;BME280;42646;51.910;7.724;2023-02-01T13:05:59;100855.59;;;6.13;100.00
39265;BME280;42646;51.910;7.724;2023-02-01T13:08:36;100851.03;;;6.15;100.00
39265;BME280;42646;51.910;7.724;2023-02-01T13:11:11;100849.56;;;6.11;100.00
39265;BME280;42646;51.910;7.724;2023-02-01T13:13:54;100831.09;;;6.11;100.00
39265;BME280;42646;51.910;7.724;2023-02-01T13:16:28;100831.50;;;6.18;100.00
39265;BME280;42646;51.910;7.724;2023-02-01T13:19:05;100825.69;;;6.25;100.00
39265;BME280;42646;51.910;7.724;2023-02-01T13:21:39;100828.53;;;6.09;100.00
39265;BME280;42646;51.910;7.724;2023-02-01T13:24:21;100832.22;;;6.32;100.00
39265;BME280;42646;51.910;7.724;2023-02-01T13:26:53;100838.88;;;6.25;100.00
39265;BME280;42646;51.910;7.724;2023-02-01T13:29:29;100833.81;;;6.22;100.00
39265;BME280;42646;51.910;7.724;2023-02-01T13:32:21;100821.56;;;6.21;100.00
39265;BME280;42646;51.910;7.724;2023-02-01T13:35:29;100817.88;;;6.24;100.00
39265;BME280;42646;51.910;7.724;2023-02-01T13:38:10;100818.38;;;6.16;100.00
39265;BME280;42646;51.910;7.724;2023-02-01T13:40:45;100808.97;;;6.37;100.00
39265;BME280;42646;51.910;7.724;2023-02-01T13:43:23;100804.84;;;6.33;100.00
39265;BME280;42646;51.910;7.724;2023-02-01T13:45:56;100807.72;;;6.30;100.00
39265;BME280;42646;51.910;7.724;2023-02-01T13:48:29;100813.41;;;6.37;100.00
39265;BME280;42646;51.910;7.724;2023-02-01T13:51:00;100811.41;;;6.40;100.00
39265;BME280;42646;51.910;7.724;2023-02-01T13:53:30;100810.78;;;6.37;100.00
39265;BME280;42646;51.910;7.724;2023-02-01T13:56:01;100793.00;;;6.39;100.00
39265;BME280;42646;51.910;7.724;2023-02-01T13:58:31;100793.41;;;6.46;100.00
39265;BME280;42646;51.910;7.724;2023-02-01T14:01:40;100802.97;;;6.72;100.00
39265;BME280;42646;51.910;7.724;2023-02-01T14:07:19;100813.56;;;6.72;100.00
39265;BME280;42646;51.910;7.724;2023-02-01T14:09:51;100799.38;;;6.73;100.00
39265;BME280;42646;51.910;7.724;2023-02-01T14:12:42;100806.59;;;6.71;100.00
39265;BME280;42646;51.910;7.724;2023-02-01T14:15:22;100814.16;;;6.76;100.00
39265;BME280;42646;51.910;7.724;2023-02-01T14:17:52;100816.94;;;6.74;100.00
39265;BME280;42646;51.910;7.724;2023-02-01T14:20:45;100823.81;;;6.77;100.00
39265;BME280;42646;51.910;7.724;2023-02-01T14:23:27;100808.22;;;6.85;100.00
39265;BME280;42646;51.910;7.724;2023-02-01T14:26:18;100816.84;;;7.00;100.00
39265;BME280;42646;51.910;7.724;2023-02-01T14:28:57;100817.59;;;7.02;100.00
39265;BME280;42646;51.910;7.724;2023-02-01T14:31:46;100831.53;;;7.04;100.00
39265;BME280;42646;51.910;7.724;2023-02-01T14:34:49;100822.56;;;7.06;100.00
39265;BME280;42646;51.910;7.724;2023-02-01T14:37:28;100811.66;;;6.98;100.00
39265;BME280;42646;51.910;7.724;2023-02-01T14:40:24;100833.34;;;7.03;100.00
39265;BME280;42646;51.910;7.724;2023-02-01T14:43:49;100837.34;;;7.09;100.00
39265;BME280;42646;51.910;7.724;2023-02-01T14:46:18;100853.88;;;7.00;100.00
39265;BME280;42646;51.910;7.724;2023-02-01T14:48:47;100850.81;;;6.93;100.00
39265;BME280;42646;51.910;7.724;2023-02-01T14:51:17;100878.75;;;6.97;100.00
39265;BME280;42646;51.910;7.724;2023-02-01T14:53:50;100867.22;;;6.98;100.00
39265;BME280;42646;51.910;7.724;2023-02-01T14:56:18;100870.34;;;7.16;100.00
39265;BME280;42646;51.910;7.724;2023-02-01T14:58:55;100872.91;;;7.05;100.00
39265;BME280;42646;51.910;7.724;2023-02-01T15:01:26;100867.09;;;7.00;100.00
39265;BME280;42646;51.910;7.724;2023-02-01T15:04:01;100874.19;;;6.99;100.00
39265;BME280;42646;51.910;7.724;2023-02-01T15:06:37;100878.63;;;6.99;100.00
39265;BME280;42646;51.910;7.724;2023-02-01T15:09:10;100886.06;;;6.93;100.00
39265;BME280;42646;51.910;7.724;2023-02-01T15:11:57;100891.06;;;6.85;100.00
39265;BME280;42646;51.910;7.724;2023-02-01T15:14:29;100887.44;;;6.86;100.00
39265;BME280;42646;51.910;7.724;2023-02-01T15:16:58;100881.03;;;6.78;100.00
39265;BME280;42646;51.910;7.724;2023-02-01T15:19:56;100878.25;;;6.79;100.00
39265;BME280;42646;51.910;7.724;2023-02-01T15:22:30;100887.75;;;6.82;100.00
39265;BME280;42646;51.910;7.724;2023-02-01T15:25:25;100888.28;;;6.87;100.00
39265;BME280;42646;51.910;7.724;2023-02-01T15:27:55;100892.84;;;6.85;100.00
39265;BME280;42646;51.910;7.724;2023-02-01T15:30:27;100892.31;;;6.92;100.00
39265;BME280;42646;51.910;7.724;2023-02-01T15:33:06;100886.81;;;6.95;100.00